sensor_id;sensor_type;location;lat;lon;timestamp;P1;durP1;ratioP1;P2;durP2;ratioP2
30635;SDS011;17400;52.392;9.750;2023-01-28T00:02:05;3.00;;;1.10;;
30635;SDS011;17400;52.392;9.750;2023-01-28T00:04:33;1.00;;;0.70;;
30635;SDS011;17400;52.392;9.750;2023-01-28T00:07:01;2.00;;;1.07;;
30635;SDS011;17400;52.392;9.750;2023-01-28T00:09:28;2.20;;;1.03;;
30635;SDS011;17400;52.392;9.750;2023-01-28T00:11:56;0.87;;;0.80;;
30635;SDS011;17400;52.392;9.750;2023-01-28T00:14:24;1.27;;;0.90;;
30635;SDS011;17400;52.392;9.750;2023-01-28T00:16:51;4.13;;;0.90;;
30635;SDS011;17400;52.392;9.750;2023-01-28T00:19:21;4.20;;;1.20;;
30635;SDS011;17400;52.392;9.750;2023-01-28T00:21:48;2.27;;;0.80;;
30635;SDS011;17400;52.392;9.750;2023-01-28T00:24:16;4.27;;;1.07;;
30635;SDS011;17400;52.392;9.750;2023-01-28T00:26:45;1.70;;;0.90;;
30635;SDS011;17400;52.392;9.750;2023-01-28T00:29:13;2.83;;;0.80;;
30635;SDS011;17400;52.392;9.750;2023-01-28T00:31:43;2.33;;;1.00;;
30635;SDS011;17400;52.392;9.750;2023-01-28T00:34:11;1.57;;;1.03;;
30635;SDS011;17400;52.392;9.750;2023-01-28T00:36:40;2.00;;;1.10;;
30635;SDS011;17400;52.392;9.750;2023-01-28T00:39:10;1.87;;;1.20;;
30635;SDS011;17400;52.392;9.750;2023-01-28T00:41:40;1.87;;;0.90;;
30635;SDS011;17400;52.392;9.750;2023-01-28T00:44:08;2.20;;;1.20;;
30635;SDS011;17400;52.392;9.750;2023-01-28T00:46:36;2.23;;;0.87;;
30635;SDS011;17400;52.392;9.750;2023-01-28T00:49:09;1.63;;;1.00;;
30635;SDS011;17400;52.392;9.750;2023-01-28T00:51:37;1.13;;;0.70;;
30635;SDS011;17400;52.392;9.750;2023-01-28T00:54:06;4.40;;;1.13;;
30635;SDS011;17400;52.392;9.750;2023-01-28T00:56:36;3.27;;;1.13;;
30635;SDS011;17400;52.392;9.750;2023-01-28T00:59:04;1.63;;;0.80;;
30635;SDS011;17400;52.392;9.750;2023-01-28T01:01:33;5.03;;;1.30;;
30635;SDS011;17400;52.392;9.750;2023-01-28T01:04:01;2.73;;;1.13;;
30635;SDS011;17400;52.392;9.750;2023-01-28T01:06:30;2.47;;;1.37;;
30635;SDS011;17400;52.392;9.750;2023-01-28T01:08:59;4.30;;;0.83;;
30635;SDS011;17400;52.392;9.750;2023-01-28T01:11:28;1.27;;;0.90;;
30635;SDS011;17400;52.392;9.750;2023-01-28T01:13:57;1.13;;;0.87;;
30635;SDS011;17400;52.392;9.750;2023-01-28T01:16:27;1.80;;;1.07;;
30635;SDS011;17400;52.392;9.750;2023-01-28T01:18:57;1.93;;;0.93;;
30635;SDS011;17400;52.392;9.750;2023-01-28T01:21:27;1.37;;;0.97;;
30635;SDS011;17400;52.392;9.750;2023-01-28T01:23:55;1.53;;;1.00;;
30635;SDS011;17400;52.392;9.750;2023-01-28T01:26:23;2.00;;;1.10;;
30635;SDS011;17400;52.392;9.750;2023-01-28T01:28:54;1.57;;;1.10;;
30635;SDS011;17400;52.392;9.750;2023-01-28T01:31:23;1.73;;;0.93;;
30635;SDS011;17400;52.392;9.750;2023-01-28T01:33:55;3.50;;;0.93;;
30635;SDS011;17400;52.392;9.750;2023-01-28T01:36:23;3.83;;;1.03;;
30635;SDS011;17400;52.392;9.750;2023-01-28T01:38:54;1.63;;;0.80;;
30635;SDS011;17400;52.392;9.750;2023-01-28T01:41:24;1.73;;;0.97;;
30635;SDS011;17400;52.392;9.750;2023-01-28T01:43:56;3.37;;;1.33;;
30635;SDS011;17400;52.392;9.750;2023-01-28T01:46:26;3.37;;;1.30;;
30635;SDS011;17400;52.392;9.750;2023-01-28T01:49:03;1.87;;;1.27;;
30635;SDS011;17400;52.392;9.750;2023-01-28T01:51:39;3.23;;;0.90;;
30635;SDS011;17400;52.392;9.750;2023-01-28T01:54:08;1.23;;;1.00;;
30635;SDS011;17400;52.392;9.750;2023-01-28T01:56:37;1.53;;;1.00;;
30635;SDS011;17400;52.392;9.750;2023-01-28T01:59:10;3.37;;;1.83;;
30635;SDS011;17400;52.392;9.750;2023-01-28T02:01:40;2.83;;;1.17;;
30635;SDS011;17400;52.392;9.750;2023-01-28T02:04:11;1.77;;;0.90;;
30635;SDS011;17400;52.392;9.750;2023-01-28T02:06:46;1.53;;;0.90;;
30635;SDS011;17400;52.392;9.750;2023-01-28T02:09:21;3.83;;;1.20;;
30635;SDS011;17400;52.392;9.750;2023-01-28T02:11:50;2.27;;;1.03;;
30635;SDS011;17400;52.392;9.750;2023-01-28T02:14:27;3.10;;;1.10;;
30635;SDS011;17400;52.392;9.750;2023-01-28T02:16:58;2.60;;;1.47;;
30635;SDS011;17400;52.392;9.750;2023-01-28T02:19:28;1.50;;;1.13;;
30635;SDS011;17400;52.392;9.750;2023-01-28T02:22:03;1.57;;;0.90;;
30635;SDS011;17400;52.392;9.750;2023-01-28T02:25:00;1.80;;;1.40;;
30635;SDS011;17400;52.392;9.750;2023-01-28T02:27:51;8.23;;;1.00;;
30635;SDS011;17400;52.392;9.750;2023-01-28T02:30:28;3.27;;;1.20;;
30635;SDS011;17400;52.392;9.750;2023-01-28T02:33:01;0.93;;;0.70;;
30635;SDS011;17400;52.392;9.750;2023-01-28T02:35:36;0.90;;;0.80;;
30635;SDS011;17400;52.392;9.750;2023-01-28T02:38:10;2.80;;;0.90;;
30635;SDS011;17400;52.392;9.750;2023-01-28T02:40:43;1.17;;;0.93;;
30635;SDS011;17400;52.392;9.750;2023-01-28T02:43:33;1.13;;;0.70;;
30635;SDS011;17400;52.392;9.750;2023-01-28T02:46:07;1.40;;;0.87;;
30635;SDS011;17400;52.392;9.750;2023-01-28T02:49:02;1.30;;;0.87;;
30635;SDS011;17400;52.392;9.750;2023-01-28T02:51:35;3.90;;;1.00;;
30635;SDS011;17400;52.392;9.750;2023-01-28T02:54:13;3.20;;;0.87;;
30635;SDS011;17400;52.392;9.750;2023-01-28T02:56:51;6.33;;;1.27;;
30635;SDS011;17400;52.392;9.750;2023-01-28T02:59:28;0.97;;;0.80;;
30635;SDS011;17400;52.392;9.750;2023-01-28T03:02:11;5.37;;;2.00;;
30635;SDS011;17400;52.392;9.750;2023-01-28T03:04:48;2.67;;;1.03;;
30635;SDS011;17400;52.392;9.750;2023-01-28T03:07:21;2.73;;;1.20;;
30635;SDS011;17400;52.392;9.750;2023-01-28T03:09:52;1.83;;;1.27;;
30635;SDS011;17400;52.392;9.750;2023-01-28T03:12:26;2.57;;;1.10;;
30635;SDS011;17400;52.392;9.750;2023-01-28T03:15:16;3.87;;;1.10;;
30635;SDS011;17400;52.392;9.750;2023-01-28T03:18:05;1.60;;;0.83;;
30635;SDS011;17400;52.392;9.750;2023-01-28T03:20:55;2.33;;;1.40;;
30635;SDS011;17400;52.392;9.750;2023-01-28T03:23:47;1.40;;;0.90;;
30635;SDS011;17400;52.392;9.750;2023-01-28T03:26:49;2.77;;;1.20;;
30635;SDS011;17400;52.392;9.750;2023-01-28T03:29:41;4.47;;;1.33;;
30635;SDS011;17400;52.392;9.750;2023-01-28T03:32:30;2.57;;;1.03;;
30635;SDS011;17400;52.392;9.750;2023-01-28T03:35:17;3.43;;;1.03;;
30635;SDS011;17400;52.392;9.750;2023-01-28T03:38:06;2.47;;;1.13;;
30635;SDS011;17400;52.392;9.750;2023-01-28T03:40:49;1.27;;;0.90;;
30635;SDS011;17400;52.392;9.750;2023-01-28T03:43:17;2.80;;;1.17;;
30635;SDS011;17400;52.392;9.750;2023-01-28T03:45:48;5.00;;;1.10;;
30635;SDS011;17400;52.392;9.750;2023-01-28T03:48:19;2.63;;;1.40;;
30635;SDS011;17400;52.392;9.750;2023-01-28T03:50:50;2.57;;;1.57;;
30635;SDS011;17400;52.392;9.750;2023-01-28T03:53:18;3.77;;;1.10;;
30635;SDS011;17400;52.392;9.750;2023-01-28T03:55:46;1.50;;;1.00;;
30635;SDS011;17400;52.392;9.750;2023-01-28T03:58:15;5.57;;;1.43;;
30635;SDS011;17400;52.392;9.750;2023-01-28T04:00:45;2.13;;;1.20;;
30635;SDS011;17400;52.392;9.750;2023-01-28T04:03:14;3.50;;;2.07;;
30635;SDS011;17400;52.392;9.750;2023-01-28T04:05:45;2.33;;;1.13;;
30635;SDS011;17400;52.392;9.750;2023-01-28T04:08:23;1.87;;;1.07;;
30635;SDS011;17400;52.392;9.750;2023-01-28T04:10:51;2.10;;;1.40;;
30635;SDS011;17400;52.392;9.750;2023-01-28T04:13:19;1.73;;;1.20;;
30635;SDS011;17400;52.392;9.750;2023-01-28T04:15:47;2.10;;;1.00;;
30635;SDS011;17400;52.392;9.750;2023-01-28T04:18:16;1.67;;;1.10;;
30635;SDS011;17400;52.392;9.750;2023-01-28T04:20:47;3.43;;;1.37;;
30635;SDS011;17400;52.392;9.750;2023-01-28T04:23:15;2.30;;;1.40;;
30635;SDS011;17400;52.392;9.750;2023-01-28T04:25:42;3.30;;;1.03;;
30635;SDS011;17400;52.392;9.750;2023-01-28T04:28:10;2.87;;;1.47;;
30635;SDS011;17400;52.392;9.750;2023-01-28T04:30:39;3.73;;;1.43;;
30635;SDS011;17400;52.392;9.750;2023-01-28T04:33:07;1.10;;;1.00;;
30635;SDS011;17400;52.392;9.750;2023-01-28T04:35:36;2.70;;;1.20;;
30635;SDS011;17400;52.392;9.750;2023-01-28T04:38:05;1.63;;;1.17;;
30635;SDS011;17400;52.392;9.750;2023-01-28T04:40:33;2.13;;;1.30;;
30635;SDS011;17400;52.392;9.750;2023-01-28T04:43:01;2.03;;;1.00;;
30635;SDS011;17400;52.392;9.750;2023-01-28T04:45:29;3.13;;;1.17;;
30635;SDS011;17400;52.392;9.750;2023-01-28T04:47:57;2.40;;;1.10;;
30635;SDS011;17400;52.392;9.750;2023-01-28T04:50:25;1.93;;;1.10;;
30635;SDS011;17400;52.392;9.750;2023-01-28T04:52:53;2.43;;;1.30;;
30635;SDS011;17400;52.392;9.750;2023-01-28T04:55:22;1.97;;;1.20;;
30635;SDS011;17400;52.392;9.750;2023-01-28T04:57:51;2.67;;;1.47;;
30635;SDS011;17400;52.392;9.750;2023-01-28T05:00:19;2.07;;;1.13;;
30635;SDS011;17400;52.392;9.750;2023-01-28T05:02:47;1.70;;;1.30;;
30635;SDS011;17400;52.392;9.750;2023-01-28T05:05:15;1.80;;;1.17;;
30635;SDS011;17400;52.392;9.750;2023-01-28T05:07:49;4.97;;;1.20;;
30635;SDS011;17400;52.392;9.750;2023-01-28T05:10:18;2.50;;;1.20;;
30635;SDS011;17400;52.392;9.750;2023-01-28T05:12:47;1.70;;;1.07;;
30635;SDS011;17400;52.392;9.750;2023-01-28T05:15:18;1.50;;;1.27;;
30635;SDS011;17400;52.392;9.750;2023-01-28T05:17:47;1.47;;;1.00;;
30635;SDS011;17400;52.392;9.750;2023-01-28T05:20:14;2.70;;;1.67;;
30635;SDS011;17400;52.392;9.750;2023-01-28T05:22:42;3.37;;;1.40;;
30635;SDS011;17400;52.392;9.750;2023-01-28T05:25:10;1.80;;;0.90;;
30635;SDS011;17400;52.392;9.750;2023-01-28T05:27:38;1.83;;;1.30;;
30635;SDS011;17400;52.392;9.750;2023-01-28T05:30:08;2.97;;;1.07;;
30635;SDS011;17400;52.392;9.750;2023-01-28T05:32:37;2.73;;;1.30;;
30635;SDS011;17400;52.392;9.750;2023-01-28T05:35:05;1.87;;;1.40;;
30635;SDS011;17400;52.392;9.750;2023-01-28T05:37:33;1.07;;;0.73;;
30635;SDS011;17400;52.392;9.750;2023-01-28T05:40:01;2.00;;;1.10;;
30635;SDS011;17400;52.392;9.750;2023-01-28T05:42:29;2.27;;;1.40;;
30635;SDS011;17400;52.392;9.750;2023-01-28T05:44:58;3.37;;;1.20;;
30635;SDS011;17400;52.392;9.750;2023-01-28T05:47:29;4.10;;;1.97;;
30635;SDS011;17400;52.392;9.750;2023-01-28T05:49:58;4.67;;;1.90;;
30635;SDS011;17400;52.392;9.750;2023-01-28T05:52:31;3.13;;;1.50;;
30635;SDS011;17400;52.392;9.750;2023-01-28T05:54:59;5.90;;;1.20;;
30635;SDS011;17400;52.392;9.750;2023-01-28T05:57:27;2.40;;;1.20;;
30635;SDS011;17400;52.392;9.750;2023-01-28T05:59:56;2.27;;;1.23;;
30635;SDS011;17400;52.392;9.750;2023-01-28T06:02:23;5.07;;;1.80;;
30635;SDS011;17400;52.392;9.750;2023-01-28T06:04:52;3.70;;;1.30;;
30635;SDS011;17400;52.392;9.750;2023-01-28T06:07:22;1.73;;;1.43;;
30635;SDS011;17400;52.392;9.750;2023-01-28T06:09:50;2.87;;;1.50;;
30635;SDS011;17400;52.392;9.750;2023-01-28T06:12:18;2.77;;;1.73;;
30635;SDS011;17400;52.392;9.750;2023-01-28T06:14:45;4.30;;;1.47;;
30635;SDS011;17400;52.392;9.750;2023-01-28T06:17:13;1.37;;;0.97;;
30635;SDS011;17400;52.392;9.750;2023-01-28T06:19:41;3.30;;;1.37;;
30635;SDS011;17400;52.392;9.750;2023-01-28T06:22:10;1.90;;;1.30;;
30635;SDS011;17400;52.392;9.750;2023-01-28T06:24:41;2.77;;;1.07;;
30635;SDS011;17400;52.392;9.750;2023-01-28T06:27:09;2.40;;;1.37;;
30635;SDS011;17400;52.392;9.750;2023-01-28T06:29:36;1.80;;;1.40;;
30635;SDS011;17400;52.392;9.750;2023-01-28T06:32:07;2.40;;;1.30;;
30635;SDS011;17400;52.392;9.750;2023-01-28T06:34:35;3.50;;;1.50;;
30635;SDS011;17400;52.392;9.750;2023-01-28T06:37:04;1.90;;;1.00;;
30635;SDS011;17400;52.392;9.750;2023-01-28T06:39:33;2.13;;;1.17;;
30635;SDS011;17400;52.392;9.750;2023-01-28T06:42:01;1.93;;;0.97;;
30635;SDS011;17400;52.392;9.750;2023-01-28T06:44:29;2.17;;;1.17;;
30635;SDS011;17400;52.392;9.750;2023-01-28T06:46:57;3.13;;;1.73;;
30635;SDS011;17400;52.392;9.750;2023-01-28T06:49:25;2.47;;;0.90;;
30635;SDS011;17400;52.392;9.750;2023-01-28T06:51:54;2.50;;;1.37;;
30635;SDS011;17400;52.392;9.750;2023-01-28T06:54:21;2.10;;;1.40;;
30635;SDS011;17400;52.392;9.750;2023-01-28T06:56:53;2.73;;;1.30;;
30635;SDS011;17400;52.392;9.750;2023-01-28T06:59:21;2.13;;;1.27;;
30635;SDS011;17400;52.392;9.750;2023-01-28T07:01:48;2.53;;;1.50;;
30635;SDS011;17400;52.392;9.750;2023-01-28T07:04:19;2.87;;;1.50;;
30635;SDS011;17400;52.392;9.750;2023-01-28T07:06:47;2.13;;;1.47;;
30635;SDS011;17400;52.392;9.750;2023-01-28T07:09:15;1.57;;;1.23;;
30635;SDS011;17400;52.392;9.750;2023-01-28T07:11:43;2.23;;;1.33;;
30635;SDS011;17400;52.392;9.750;2023-01-28T07:14:12;1.67;;;1.13;;
30635;SDS011;17400;52.392;9.750;2023-01-28T07:16:39;2.00;;;1.23;;
30635;SDS011;17400;52.392;9.750;2023-01-28T07:19:07;1.67;;;1.30;;
30635;SDS011;17400;52.392;9.750;2023-01-28T07:21:36;2.43;;;1.30;;
30635;SDS011;17400;52.392;9.750;2023-01-28T07:24:05;4.20;;;1.43;;
30635;SDS011;17400;52.392;9.750;2023-01-28T07:26:33;2.60;;;1.77;;
30635;SDS011;17400;52.392;9.750;2023-01-28T07:29:01;4.60;;;1.50;;
30635;SDS011;17400;52.392;9.750;2023-01-28T07:31:30;4.00;;;1.77;;
30635;SDS011;17400;52.392;9.750;2023-01-28T07:33:58;3.50;;;1.20;;
30635;SDS011;17400;52.392;9.750;2023-01-28T07:36:34;2.20;;;1.33;;
30635;SDS011;17400;52.392;9.750;2023-01-28T07:39:02;4.63;;;2.53;;
30635;SDS011;17400;52.392;9.750;2023-01-28T07:41:30;4.63;;;2.20;;
30635;SDS011;17400;52.392;9.750;2023-01-28T07:43:58;5.83;;;2.70;;
30635;SDS011;17400;52.392;9.750;2023-01-28T07:46:28;6.40;;;2.43;;
30635;SDS011;17400;52.392;9.750;2023-01-28T07:48:57;6.00;;;2.40;;
30635;SDS011;17400;52.392;9.750;2023-01-28T07:51:25;4.30;;;2.70;;
30635;SDS011;17400;52.392;9.750;2023-01-28T07:53:53;3.27;;;2.33;;
30635;SDS011;17400;52.392;9.750;2023-01-28T07:56:20;2.33;;;1.50;;
30635;SDS011;17400;52.392;9.750;2023-01-28T07:58:51;2.47;;;1.50;;
30635;SDS011;17400;52.392;9.750;2023-01-28T08:01:20;5.97;;;1.50;;
30635;SDS011;17400;52.392;9.750;2023-01-28T08:03:51;2.80;;;1.80;;
30635;SDS011;17400;52.392;9.750;2023-01-28T08:06:21;4.03;;;1.97;;
30635;SDS011;17400;52.392;9.750;2023-01-28T08:08:48;3.63;;;1.90;;
30635;SDS011;17400;52.392;9.750;2023-01-28T08:11:17;3.20;;;1.93;;
30635;SDS011;17400;52.392;9.750;2023-01-28T08:13:46;3.60;;;1.80;;
30635;SDS011;17400;52.392;9.750;2023-01-28T08:16:17;4.67;;;2.17;;
30635;SDS011;17400;52.392;9.750;2023-01-28T08:18:47;3.17;;;1.90;;
30635;SDS011;17400;52.392;9.750;2023-01-28T08:21:16;4.33;;;1.90;;
30635;SDS011;17400;52.392;9.750;2023-01-28T08:23:48;4.50;;;1.80;;
30635;SDS011;17400;52.392;9.750;2023-01-28T08:26:28;4.27;;;2.30;;
30635;SDS011;17400;52.392;9.750;2023-01-28T08:28:56;2.80;;;2.13;;
30635;SDS011;17400;52.392;9.750;2023-01-28T08:31:24;5.67;;;2.57;;
30635;SDS011;17400;52.392;9.750;2023-01-28T08:33:56;3.20;;;1.90;;
30635;SDS011;17400;52.392;9.750;2023-01-28T08:36:27;2.50;;;1.90;;
30635;SDS011;17400;52.392;9.750;2023-01-28T08:38:57;3.27;;;2.40;;
30635;SDS011;17400;52.392;9.750;2023-01-28T08:41:24;3.37;;;1.93;;
30635;SDS011;17400;52.392;9.750;2023-01-28T08:43:53;3.83;;;2.33;;
30635;SDS011;17400;52.392;9.750;2023-01-28T08:46:21;4.87;;;2.20;;
30635;SDS011;17400;52.392;9.750;2023-01-28T08:48:48;2.27;;;1.93;;
30635;SDS011;17400;52.392;9.750;2023-01-28T08:51:17;4.67;;;2.93;;
30635;SDS011;17400;52.392;9.750;2023-01-28T08:53:45;5.13;;;2.47;;
30635;SDS011;17400;52.392;9.750;2023-01-28T08:56:17;5.00;;;2.33;;
30635;SDS011;17400;52.392;9.750;2023-01-28T08:58:45;5.67;;;2.80;;
30635;SDS011;17400;52.392;9.750;2023-01-28T09:01:13;6.27;;;2.53;;
30635;SDS011;17400;52.392;9.750;2023-01-28T09:03:41;3.10;;;2.53;;
30635;SDS011;17400;52.392;9.750;2023-01-28T09:06:08;5.40;;;2.70;;
30635;SDS011;17400;52.392;9.750;2023-01-28T09:08:36;4.20;;;2.30;;
30635;SDS011;17400;52.392;9.750;2023-01-28T09:11:04;6.97;;;3.20;;
30635;SDS011;17400;52.392;9.750;2023-01-28T09:13:33;5.80;;;2.70;;
30635;SDS011;17400;52.392;9.750;2023-01-28T09:16:03;3.47;;;2.80;;
30635;SDS011;17400;52.392;9.750;2023-01-28T09:18:31;4.63;;;2.97;;
30635;SDS011;17400;52.392;9.750;2023-01-28T09:20:59;6.63;;;3.47;;
30635;SDS011;17400;52.392;9.750;2023-01-28T09:23:27;6.30;;;3.77;;
30635;SDS011;17400;52.392;9.750;2023-01-28T09:25:58;6.07;;;3.27;;
30635;SDS011;17400;52.392;9.750;2023-01-28T09:28:26;3.00;;;2.43;;
30635;SDS011;17400;52.392;9.750;2023-01-28T09:31:01;5.27;;;2.80;;
30635;SDS011;17400;52.392;9.750;2023-01-28T09:33:30;3.30;;;2.47;;
30635;SDS011;17400;52.392;9.750;2023-01-28T09:36:00;4.57;;;3.10;;
30635;SDS011;17400;52.392;9.750;2023-01-28T09:38:31;7.60;;;3.60;;
30635;SDS011;17400;52.392;9.750;2023-01-28T09:41:00;5.10;;;2.80;;
30635;SDS011;17400;52.392;9.750;2023-01-28T09:43:35;4.07;;;2.43;;
30635;SDS011;17400;52.392;9.750;2023-01-28T09:46:15;3.63;;;2.47;;
30635;SDS011;17400;52.392;9.750;2023-01-28T09:48:47;6.77;;;3.33;;
30635;SDS011;17400;52.392;9.750;2023-01-28T09:51:21;5.17;;;3.27;;
30635;SDS011;17400;52.392;9.750;2023-01-28T09:53:59;6.80;;;2.70;;
30635;SDS011;17400;52.392;9.750;2023-01-28T09:56:31;4.13;;;2.90;;
30635;SDS011;17400;52.392;9.750;2023-01-28T09:59:10;5.57;;;2.57;;
30635;SDS011;17400;52.392;9.750;2023-01-28T10:01:46;5.33;;;3.00;;
30635;SDS011;17400;52.392;9.750;2023-01-28T10:04:21;5.57;;;2.80;;
30635;SDS011;17400;52.392;9.750;2023-01-28T10:07:06;8.27;;;3.97;;
30635;SDS011;17400;52.392;9.750;2023-01-28T10:09:47;6.97;;;3.03;;
30635;SDS011;17400;52.392;9.750;2023-01-28T10:12:23;5.70;;;2.93;;
30635;SDS011;17400;52.392;9.750;2023-01-28T10:15:09;6.63;;;2.90;;
30635;SDS011;17400;52.392;9.750;2023-01-28T10:17:51;5.50;;;2.80;;
30635;SDS011;17400;52.392;9.750;2023-01-28T10:20:41;7.83;;;3.30;;
30635;SDS011;17400;52.392;9.750;2023-01-28T10:23:23;7.20;;;4.30;;
30635;SDS011;17400;52.392;9.750;2023-01-28T10:25:56;4.23;;;3.30;;
30635;SDS011;17400;52.392;9.750;2023-01-28T10:28:33;5.40;;;3.50;;
30635;SDS011;17400;52.392;9.750;2023-01-28T10:31:08;4.73;;;3.10;;
30635;SDS011;17400;52.392;9.750;2023-01-28T10:33:40;4.90;;;3.53;;
30635;SDS011;17400;52.392;9.750;2023-01-28T10:36:08;4.63;;;2.93;;
30635;SDS011;17400;52.392;9.750;2023-01-28T10:38:38;3.57;;;3.00;;
30635;SDS011;17400;52.392;9.750;2023-01-28T10:41:08;6.37;;;3.23;;
30635;SDS011;17400;52.392;9.750;2023-01-28T10:43:39;3.50;;;2.73;;
30635;SDS011;17400;52.392;9.750;2023-01-28T10:46:10;5.00;;;3.30;;
30635;SDS011;17400;52.392;9.750;2023-01-28T10:48:41;8.20;;;3.70;;
30635;SDS011;17400;52.392;9.750;2023-01-28T10:51:17;5.63;;;3.03;;
30635;SDS011;17400;52.392;9.750;2023-01-28T10:53:50;6.30;;;4.13;;
30635;SDS011;17400;52.392;9.750;2023-01-28T10:56:23;5.77;;;4.00;;
30635;SDS011;17400;52.392;9.750;2023-01-28T10:58:56;5.13;;;3.83;;
30635;SDS011;17400;52.392;9.750;2023-01-28T11:01:40;10.93;;;3.87;;
30635;SDS011;17400;52.392;9.750;2023-01-28T11:04:16;5.17;;;3.30;;
30635;SDS011;17400;52.392;9.750;2023-01-28T11:06:52;5.30;;;3.23;;
30635;SDS011;17400;52.392;9.750;2023-01-28T11:09:24;5.77;;;3.10;;
30635;SDS011;17400;52.392;9.750;2023-01-28T11:11:57;4.57;;;3.43;;
30635;SDS011;17400;52.392;9.750;2023-01-28T11:14:36;4.23;;;2.87;;
30635;SDS011;17400;52.392;9.750;2023-01-28T11:17:04;10.73;;;6.17;;
30635;SDS011;17400;52.392;9.750;2023-01-28T11:19:42;6.93;;;3.53;;
30635;SDS011;17400;52.392;9.750;2023-01-28T11:22:13;5.77;;;2.90;;
30635;SDS011;17400;52.392;9.750;2023-01-28T11:24:57;4.33;;;2.80;;
30635;SDS011;17400;52.392;9.750;2023-01-28T11:27:27;5.60;;;2.87;;
30635;SDS011;17400;52.392;9.750;2023-01-28T11:29:57;7.33;;;3.10;;
30635;SDS011;17400;52.392;9.750;2023-01-28T11:32:29;6.13;;;3.47;;
30635;SDS011;17400;52.392;9.750;2023-01-28T11:34:57;4.67;;;3.00;;
30635;SDS011;17400;52.392;9.750;2023-01-28T11:37:26;3.00;;;2.30;;
30635;SDS011;17400;52.392;9.750;2023-01-28T11:40:02;4.63;;;3.30;;
30635;SDS011;17400;52.392;9.750;2023-01-28T11:42:49;4.50;;;3.17;;
30635;SDS011;17400;52.392;9.750;2023-01-28T11:45:18;5.30;;;3.07;;
30635;SDS011;17400;52.392;9.750;2023-01-28T11:47:56;9.50;;;4.97;;
30635;SDS011;17400;52.392;9.750;2023-01-28T11:50:32;9.97;;;5.10;;
30635;SDS011;17400;52.392;9.750;2023-01-28T11:53:14;6.97;;;3.93;;
30635;SDS011;17400;52.392;9.750;2023-01-28T11:55:57;11.50;;;7.17;;
30635;SDS011;17400;52.392;9.750;2023-01-28T11:58:35;12.43;;;6.93;;
30635;SDS011;17400;52.392;9.750;2023-01-28T12:01:13;10.13;;;5.50;;
30635;SDS011;17400;52.392;9.750;2023-01-28T12:03:51;9.13;;;4.70;;
30635;SDS011;17400;52.392;9.750;2023-01-28T12:06:47;6.63;;;4.00;;
30635;SDS011;17400;52.392;9.750;2023-01-28T12:09:24;5.33;;;3.47;;
30635;SDS011;17400;52.392;9.750;2023-01-28T12:17:55;6.70;;;4.50;;
30635;SDS011;17400;52.392;9.750;2023-01-28T12:20:37;7.27;;;4.60;;
30635;SDS011;17400;52.392;9.750;2023-01-28T12:23:17;12.57;;;4.40;;
30635;SDS011;17400;52.392;9.750;2023-01-28T12:26:04;8.43;;;4.70;;
30635;SDS011;17400;52.392;9.750;2023-01-28T12:28:42;8.43;;;4.67;;
30635;SDS011;17400;52.392;9.750;2023-01-28T12:31:25;8.97;;;4.30;;
30635;SDS011;17400;52.392;9.750;2023-01-28T12:34:11;6.23;;;4.53;;
30635;SDS011;17400;52.392;9.750;2023-01-28T12:36:59;8.17;;;4.67;;
30635;SDS011;17400;52.392;9.750;2023-01-28T12:39:40;9.43;;;4.10;;
30635;SDS011;17400;52.392;9.750;2023-01-28T12:42:19;10.80;;;5.90;;
30635;SDS011;17400;52.392;9.750;2023-01-28T12:44:56;7.50;;;4.53;;
30635;SDS011;17400;52.392;9.750;2023-01-28T12:47:34;4.97;;;3.27;;
30635;SDS011;17400;52.392;9.750;2023-01-28T12:50:10;7.07;;;4.80;;
30635;SDS011;17400;52.392;9.750;2023-01-28T12:52:42;5.53;;;3.93;;
30635;SDS011;17400;52.392;9.750;2023-01-28T12:55:16;6.63;;;4.17;;
30635;SDS011;17400;52.392;9.750;2023-01-28T12:57:48;10.67;;;5.00;;
30635;SDS011;17400;52.392;9.750;2023-01-28T13:00:22;6.93;;;4.70;;
30635;SDS011;17400;52.392;9.750;2023-01-28T13:03:08;6.37;;;4.07;;
30635;SDS011;17400;52.392;9.750;2023-01-28T13:05:45;5.90;;;4.00;;
30635;SDS011;17400;52.392;9.750;2023-01-28T13:08:18;6.53;;;4.23;;
30635;SDS011;17400;52.392;9.750;2023-01-28T13:10:52;6.33;;;3.97;;
30635;SDS011;17400;52.392;9.750;2023-01-28T13:13:27;7.23;;;4.37;;
30635;SDS011;17400;52.392;9.750;2023-01-28T13:16:01;5.20;;;4.10;;
30635;SDS011;17400;52.392;9.750;2023-01-28T13:18:32;9.23;;;4.43;;
30635;SDS011;17400;52.392;9.750;2023-01-28T13:21:12;8.37;;;5.33;;
30635;SDS011;17400;52.392;9.750;2023-01-28T13:23:42;9.70;;;4.90;;
30635;SDS011;17400;52.392;9.750;2023-01-28T13:26:26;10.23;;;5.33;;
30635;SDS011;17400;52.392;9.750;2023-01-28T13:29:07;8.73;;;5.40;;
30635;SDS011;17400;52.392;9.750;2023-01-28T13:31:49;9.33;;;5.90;;
30635;SDS011;17400;52.392;9.750;2023-01-28T13:34:30;9.80;;;5.47;;
30635;SDS011;17400;52.392;9.750;2023-01-28T13:37:12;6.27;;;5.50;;
30635;SDS011;17400;52.392;9.750;2023-01-28T13:39:47;6.77;;;4.67;;
30635;SDS011;17400;52.392;9.750;2023-01-28T13:42:25;13.33;;;5.50;;
30635;SDS011;17400;52.392;9.750;2023-01-28T13:44:55;10.47;;;4.87;;
30635;SDS011;17400;52.392;9.750;2023-01-28T13:47:42;7.63;;;5.90;;
30635;SDS011;17400;52.392;9.750;2023-01-28T13:50:14;9.60;;;6.47;;
30635;SDS011;17400;52.392;9.750;2023-01-28T13:52:46;8.00;;;5.50;;
30635;SDS011;17400;52.392;9.750;2023-01-28T13:55:19;8.73;;;5.07;;
30635;SDS011;17400;52.392;9.750;2023-01-28T14:01:23;9.50;;;6.73;;
30635;SDS011;17400;52.392;9.750;2023-01-28T14:07:24;9.03;;;6.43;;
30635;SDS011;17400;52.392;9.750;2023-01-28T14:10:10;10.57;;;7.13;;
30635;SDS011;17400;52.392;9.750;2023-01-28T14:13:01;11.57;;;6.03;;
30635;SDS011;17400;52.392;9.750;2023-01-28T14:16:07;8.33;;;5.27;;
30635;SDS011;17400;52.392;9.750;2023-01-28T14:18:59;8.13;;;5.13;;
30635;SDS011;17400;52.392;9.750;2023-01-28T14:21:35;8.07;;;5.80;;
30635;SDS011;17400;52.392;9.750;2023-01-28T14:24:10;7.57;;;4.73;;
30635;SDS011;17400;52.392;9.750;2023-01-28T14:27:01;9.67;;;6.17;;
30635;SDS011;17400;52.392;9.750;2023-01-28T14:29:43;7.73;;;5.73;;
30635;SDS011;17400;52.392;9.750;2023-01-28T14:32:27;10.43;;;6.63;;
30635;SDS011;17400;52.392;9.750;2023-01-28T14:35:00;9.57;;;6.13;;
30635;SDS011;17400;52.392;9.750;2023-01-28T14:37:37;9.03;;;6.27;;
30635;SDS011;17400;52.392;9.750;2023-01-28T14:40:06;8.87;;;5.57;;
30635;SDS011;17400;52.392;9.750;2023-01-28T14:42:40;9.53;;;5.97;;
30635;SDS011;17400;52.392;9.750;2023-01-28T14:45:20;9.83;;;6.60;;
30635;SDS011;17400;52.392;9.750;2023-01-28T14:48:03;12.67;;;7.13;;
30635;SDS011;17400;52.392;9.750;2023-01-28T14:50:59;8.57;;;5.83;;
30635;SDS011;17400;52.392;9.750;2023-01-28T14:56:35;10.60;;;6.60;;
30635;SDS011;17400;52.392;9.750;2023-01-28T14:59:17;10.97;;;6.63;;
30635;SDS011;17400;52.392;9.750;2023-01-28T15:01:53;12.47;;;6.90;;
30635;SDS011;17400;52.392;9.750;2023-01-28T15:04:23;10.13;;;7.20;;
30635;SDS011;17400;52.392;9.750;2023-01-28T15:07:00;10.83;;;7.40;;
30635;SDS011;17400;52.392;9.750;2023-01-28T15:09:46;13.70;;;7.67;;
30635;SDS011;17400;52.392;9.750;2023-01-28T15:12:17;13.50;;;8.47;;
30635;SDS011;17400;52.392;9.750;2023-01-28T15:14:46;19.30;;;10.57;;
30635;SDS011;17400;52.392;9.750;2023-01-28T15:17:19;19.93;;;11.23;;
30635;SDS011;17400;52.392;9.750;2023-01-28T15:19:51;17.33;;;10.27;;
30635;SDS011;17400;52.392;9.750;2023-01-28T15:22:23;24.70;;;10.87;;
30635;SDS011;17400;52.392;9.750;2023-01-28T15:24:58;15.77;;;10.47;;
30635;SDS011;17400;52.392;9.750;2023-01-28T15:27:27;17.17;;;9.70;;
30635;SDS011;17400;52.392;9.750;2023-01-28T15:29:59;14.37;;;8.27;;
30635;SDS011;17400;52.392;9.750;2023-01-28T15:32:29;12.10;;;8.30;;
30635;SDS011;17400;52.392;9.750;2023-01-28T15:34:59;12.20;;;7.50;;
30635;SDS011;17400;52.392;9.750;2023-01-28T15:37:29;14.63;;;8.53;;